Etusivu
METAR-TAF:

METAR-TAF

Lentoasemat :

Mora–Siljan

Mora, Ruotsi

Leveyspiiri: 60-57-31N, Pituuspiiri: 14-30-40E, korkeus merenpinnasta: 193 m

Tämänhetkinen sää

Tämä raportti tehtiin 14 minuuttia sitten, kello 15.50 UTC
Tuuli 7 kn pohjoisesta
Lämpötila 13°C
Kosteus 67%
Ilmanpaine 1001 hPa
Näkyvyys 10 km tai enemmän

METAR: ESKM 211550Z AUTO 35007KT 9999 OVC086/// 13/07 Q1001

Aika: 18:04 (16:04 UTC)


TAF: puuttuu

Säähavainnot ja -ennusteet yli 4000 lentoasemalta (METAR- ja TAF-raportit).

Käytössä olevat sääasemat on merkitty karttaan keltaisilla ja punaisilla pisteillä.

Aseta hiiri pisteen päälle nähdäksesi sääaseman nimen.

Klikkaa sitten nähdäksesi säähavainnot ja -ennusteet.

Kartan vaihtaminen: klikkaa mustalla rastilla varustettuja vihreitä pisteitä, niin voit zoomata sisään; viivalla varustettua vihreää pistettä, niin voit zoomata ulos tai vihreitä nuolia, niin pääset viereisille kartoille.


METAR-TAF: